This is the latest recevied weather packets stored in our database for station/object HS3PIK-2. If no packets are shown the sender has not sent any weather packets the latest 10 day(s).
| Time | Temp. | Humidity | Pressure | Rain* | Wind** | Luminosity | Snow |
|---|---|---|---|---|---|---|---|
| 1777456939 | 33.89° C | 65% | - | - | - | 0 W/m² | - |
| 1777456614 | 33.89° C | 65% | - | - | - | 0 W/m² | - |
| 1777456287 | 33.89° C | 65% | - | - | - | 0 W/m² | - |
| 1777455959 | 33.89° C | 65% | - | - | - | 0 W/m² | - |
| 1777455635 | 33.89° C | 64% | - | - | - | 0 W/m² | - |
| 1777455310 | 34.44° C | 63% | - | - | - | 0 W/m² | - |
| 1777454985 | 34.44° C | 62% | - | - | - | 0 W/m² | - |
| 1777454655 | 34.44° C | 62% | - | - | - | 0 W/m² | - |
| 1777454327 | 34.44° C | 62% | - | - | - | 0 W/m² | - |
| 1777453997 | 34.44° C | 62% | - | - | - | 0 W/m² | - |
| 1777453670 | 34.44° C | 63% | - | - | - | 0 W/m² | - |
| 1777453340 | 33.89° C | 64% | - | - | - | 0 W/m² | - |
| 1777453015 | 34.44° C | 63% | - | - | - | 0 W/m² | - |
| 1777452690 | 34.44° C | 63% | - | - | - | 0 W/m² | - |
| 1777452363 | 35° C | 62% | - | - | - | 0 W/m² | - |
| 1777452035 | 35.56° C | 61% | - | - | - | 0 W/m² | - |
| 1777451705 | 36.11° C | 56% | - | - | - | 0 W/m² | - |
| 1777451380 | 37.78° C | 51% | - | - | - | 0 W/m² | - |
| 1777451053 | 38.33° C | 47% | - | - | - | 0 W/m² | - |
| 1777450723 | 38.89° C | 47% | - | - | - | 0 W/m² | - |
| 1777450396 | 38.89° C | 47% | - | - | - | 0 W/m² | - |
| 1777450068 | 40° C | 45% | - | - | - | 0 W/m² | - |
| 1777449741 | 40° C | 45% | - | - | - | 0 W/m² | - |
| 1777449416 | 40.56° C | 45% | - | - | - | 0 W/m² | - |
| 1777449091 | 40.56° C | 44% | - | - | - | 0 W/m² | - |
* Rain since midnight (hover to see other rain measurements)
** Current wind speed in m/s (hover to see current wind gust speed)